createdAt,value
2022-12-15T00:02:17.105Z,24.10
2022-12-15T00:05:06.014Z,26.30
2022-12-15T00:07:54.873Z,25.50
2022-12-15T00:10:43.925Z,23.30
2022-12-15T00:13:33.392Z,25.40
2022-12-15T00:16:22.853Z,23.70
2022-12-15T00:19:11.816Z,27.40
2022-12-15T00:22:00.942Z,27.60
2022-12-15T00:24:50.337Z,28.00
2022-12-15T00:27:39.200Z,28.90
2022-12-15T00:30:29.506Z,29.10
2022-12-15T00:33:18.358Z,31.30
2022-12-15T00:36:08.680Z,29.90
2022-12-15T00:38:46.291Z,29.40
2022-12-15T00:41:19.606Z,28.60
2022-12-15T00:43:51.415Z,29.80
2022-12-15T00:46:40.596Z,30.00
2022-12-15T00:49:32.663Z,27.70
2022-12-15T00:52:21.798Z,27.90
2022-12-15T00:55:10.801Z,28.20
2022-12-15T00:58:00.990Z,29.20
2022-12-15T01:00:51.882Z,28.90
2022-12-15T01:03:42.976Z,27.50
2022-12-15T01:06:35.069Z,29.40
2022-12-15T01:09:26.581Z,30.80
2022-12-15T01:12:16.374Z,27.20
2022-12-15T01:15:05.793Z,28.30
2022-12-15T01:17:54.872Z,30.00
2022-12-15T01:20:26.642Z,29.80
2022-12-15T01:22:58.881Z,31.10
2022-12-15T01:25:30.780Z,29.50
2022-12-15T01:28:02.462Z,27.90
2022-12-15T01:30:34.200Z,29.10
2022-12-15T01:33:05.974Z,28.50
2022-12-15T01:35:45.110Z,28.00
2022-12-15T01:38:16.910Z,27.50
2022-12-15T01:40:55.297Z,29.70
2022-12-15T01:43:29.360Z,28.20
2022-12-15T01:46:05.371Z,28.30
2022-12-15T01:48:46.221Z,27.80
2022-12-15T01:51:25.542Z,29.40
2022-12-15T01:54:03.360Z,37.20
2022-12-15T01:56:38.584Z,40.60
2022-12-15T01:59:15.586Z,30.70
2022-12-15T02:01:49.552Z,32.40
2022-12-15T02:04:24.371Z,32.50
2022-12-15T02:06:56.530Z,34.60
2022-12-15T02:09:30.169Z,32.80
2022-12-15T02:12:11.014Z,41.80
2022-12-15T02:14:55.585Z,39.70
2022-12-15T02:17:37.265Z,35.30
2022-12-15T02:20:44.366Z,32.50
2022-12-15T02:23:44.104Z,31.90
2022-12-15T02:26:32.098Z,32.70
2022-12-15T02:29:20.242Z,30.60
2022-12-15T02:31:57.545Z,33.00
2022-12-15T02:34:36.093Z,32.20
2022-12-15T02:37:13.066Z,33.20
2022-12-15T02:39:45.106Z,30.00
2022-12-15T02:42:16.936Z,30.00
2022-12-15T02:44:53.853Z,29.90
2022-12-15T02:47:34.362Z,28.00
2022-12-15T02:50:30.298Z,26.90
2022-12-15T02:53:17.375Z,28.40
2022-12-15T02:55:59.769Z,27.80
2022-12-15T02:58:39.456Z,28.00
2022-12-15T03:01:15.395Z,26.80
2022-12-15T03:03:48.530Z,28.20
2022-12-15T03:06:20.826Z,29.10
2022-12-15T03:08:52.349Z,29.50
2022-12-15T03:11:24.364Z,27.30
2022-12-15T03:13:56.229Z,28.60
2022-12-15T03:16:27.894Z,28.70
2022-12-15T03:18:59.485Z,28.90
2022-12-15T03:21:31.030Z,28.70
2022-12-15T03:24:02.530Z,29.70
2022-12-15T03:26:34.474Z,30.50
2022-12-15T03:29:06.301Z,31.50
2022-12-15T03:31:38.091Z,30.30
2022-12-15T03:34:09.873Z,30.10
2022-12-15T03:36:41.691Z,32.10
2022-12-15T03:39:13.399Z,32.70
2022-12-15T03:41:45.079Z,32.60
2022-12-15T03:44:16.533Z,31.70
2022-12-15T03:46:48.118Z,29.50
2022-12-15T03:49:19.731Z,31.40
2022-12-15T03:51:51.320Z,30.70
2022-12-15T03:54:22.857Z,29.40
2022-12-15T03:56:54.399Z,30.90
2022-12-15T03:59:26.229Z,30.40
2022-12-15T04:01:57.875Z,30.10
2022-12-15T04:04:29.453Z,31.20
2022-12-15T04:07:01.068Z,31.20
2022-12-15T04:09:32.719Z,31.50
2022-12-15T04:12:04.871Z,31.10
2022-12-15T04:14:36.509Z,33.60
2022-12-15T04:17:08.239Z,30.20
2022-12-15T04:19:57.376Z,31.60
2022-12-15T04:22:28.965Z,32.00
2022-12-15T04:25:17.903Z,33.80
2022-12-15T04:28:12.422Z,29.80
2022-12-15T04:31:09.631Z,31.80
2022-12-15T04:34:01.523Z,30.20
2022-12-15T04:36:51.804Z,30.50
2022-12-15T04:39:41.112Z,30.40
2022-12-15T04:42:30.115Z,31.00
2022-12-15T04:45:22.183Z,28.30
2022-12-15T04:48:11.443Z,31.80
2022-12-15T04:51:01.121Z,29.80
2022-12-15T04:53:50.312Z,30.80
2022-12-15T04:56:39.226Z,33.50
2022-12-15T04:59:28.266Z,33.90
2022-12-15T05:02:17.212Z,35.30
2022-12-15T05:05:06.394Z,33.20
2022-12-15T05:07:55.402Z,32.00
2022-12-15T05:10:44.392Z,32.50
2022-12-15T05:13:33.346Z,31.20
2022-12-15T05:16:23.618Z,32.10
2022-12-15T05:19:12.593Z,32.20
2022-12-15T05:22:01.328Z,29.30
2022-12-15T05:24:50.320Z,27.50
2022-12-15T05:27:39.380Z,31.60
2022-12-15T05:30:31.426Z,30.80
2022-12-15T05:33:06.821Z,31.50
2022-12-15T05:35:39.034Z,30.30
2022-12-15T05:38:10.667Z,34.60
2022-12-15T05:40:42.471Z,36.00
2022-12-15T05:43:14.367Z,35.90
2022-12-15T05:45:46.140Z,36.50
2022-12-15T05:48:17.753Z,37.50
2022-12-15T05:50:50.880Z,38.40
2022-12-15T05:53:22.588Z,37.80
2022-12-15T05:55:54.445Z,35.80
2022-12-15T05:58:26.215Z,38.60
2022-12-15T06:01:03.919Z,35.60
2022-12-15T06:03:35.739Z,35.70
2022-12-15T06:06:08.785Z,35.20
2022-12-15T06:08:42.954Z,36.10
2022-12-15T06:11:17.090Z,37.20
2022-12-15T06:13:49.095Z,36.70
2022-12-15T06:16:22.460Z,32.90
2022-12-15T06:18:57.710Z,37.80
2022-12-15T06:21:32.034Z,37.80
2022-12-15T06:24:03.934Z,34.30
2022-12-15T06:26:38.116Z,34.90
2022-12-15T06:29:12.139Z,35.90
2022-12-15T06:31:45.189Z,35.30
2022-12-15T06:34:18.601Z,33.40
2022-12-15T06:36:52.214Z,34.40
2022-12-15T06:39:23.991Z,35.10
2022-12-15T06:41:55.717Z,39.40
2022-12-15T06:44:27.575Z,38.90
2022-12-15T06:46:59.161Z,37.10
2022-12-15T06:49:32.340Z,39.90
2022-12-15T06:52:04.157Z,37.00
2022-12-15T06:54:36.202Z,38.10
2022-12-15T06:57:09.707Z,41.80
2022-12-15T06:59:41.419Z,44.50
2022-12-15T07:02:23.662Z,41.60
2022-12-15T07:04:58.687Z,39.90
2022-12-15T07:07:30.305Z,43.10
2022-12-15T07:10:02.255Z,43.20
2022-12-15T07:12:34.097Z,40.20
2022-12-15T07:15:06.265Z,42.50
2022-12-15T07:17:38.548Z,41.30
2022-12-15T07:20:12.280Z,41.00
2022-12-15T07:22:43.991Z,41.30
2022-12-15T07:25:15.624Z,44.30
2022-12-15T07:27:47.395Z,43.10
2022-12-15T07:30:20.155Z,47.40
2022-12-15T07:32:52.470Z,50.90
2022-12-15T07:35:24.662Z,46.40
2022-12-15T07:37:56.445Z,48.10
2022-12-15T07:40:28.165Z,46.30
2022-12-15T07:42:59.898Z,46.90
2022-12-15T07:45:31.559Z,47.00
2022-12-15T07:48:03.658Z,45.60
2022-12-15T07:50:35.535Z,43.30
2022-12-15T07:53:07.509Z,43.40
2022-12-15T07:56:05.611Z,41.50
2022-12-15T07:58:32.428Z,41.00
2022-12-15T08:01:06.165Z,42.80
2022-12-15T08:03:38.911Z,39.40
2022-12-15T08:06:13.642Z,40.10
2022-12-15T08:08:50.407Z,38.70
2022-12-15T08:11:25.213Z,40.90
2022-12-15T08:14:06.942Z,39.00
2022-12-15T08:19:15.746Z,35.80
2022-12-15T08:21:49.046Z,42.40
2022-12-15T08:24:21.367Z,44.00
2022-12-15T08:26:53.355Z,48.50
2022-12-15T08:29:50.178Z,46.80
2022-12-15T08:32:16.965Z,45.70
2022-12-15T08:34:50.306Z,51.30
2022-12-15T08:37:22.002Z,50.10
2022-12-15T08:39:53.930Z,47.00
2022-12-15T08:42:26.006Z,46.50
2022-12-15T08:44:59.805Z,47.70
2022-12-15T08:47:36.206Z,47.60
2022-12-15T08:50:10.749Z,45.00
2022-12-15T08:53:00.747Z,46.10
2022-12-15T08:55:38.357Z,48.20
2022-12-15T08:58:10.307Z,49.40
2022-12-15T09:00:42.099Z,49.50
2022-12-15T09:03:13.847Z,50.40
2022-12-15T09:05:45.869Z,51.10
2022-12-15T09:08:20.096Z,49.00
2022-12-15T09:10:52.706Z,48.20
2022-12-15T09:13:24.758Z,50.10
2022-12-15T09:16:09.287Z,46.80
2022-12-15T09:18:43.441Z,49.80
2022-12-15T09:21:16.005Z,50.70
2022-12-15T09:23:52.271Z,49.30
2022-12-15T09:26:25.355Z,49.90
2022-12-15T09:28:57.098Z,47.30
2022-12-15T09:31:31.346Z,52.00
2022-12-15T09:34:04.341Z,51.00
2022-12-15T09:36:36.100Z,48.70
2022-12-15T09:39:09.218Z,51.50
2022-12-15T09:41:43.470Z,52.50
2022-12-15T09:44:18.164Z,51.60
2022-12-15T09:47:12.658Z,49.00
2022-12-15T09:49:55.179Z,48.20
2022-12-15T09:52:31.554Z,48.10
2022-12-15T09:55:05.794Z,46.60
2022-12-15T09:57:44.801Z,48.50
2022-12-15T10:00:22.867Z,47.80
2022-12-15T10:03:25.060Z,50.70
2022-12-15T10:06:17.068Z,49.70
2022-12-15T10:08:55.763Z,47.90
2022-12-15T10:11:42.311Z,45.50
2022-12-15T10:14:23.502Z,46.90
2022-12-15T10:17:01.510Z,46.00
2022-12-15T10:19:42.410Z,46.80
2022-12-15T10:22:22.219Z,45.00
2022-12-15T10:25:11.549Z,46.20
2022-12-15T10:28:09.648Z,46.10
2022-12-15T10:30:52.576Z,46.70
2022-12-15T10:33:28.866Z,47.60
2022-12-15T10:36:01.394Z,45.20
2022-12-15T10:38:39.047Z,49.90
2022-12-15T10:41:13.724Z,49.60
2022-12-15T10:43:47.614Z,47.00
2022-12-15T10:46:24.594Z,49.30
2022-12-15T10:48:58.733Z,47.30
2022-12-15T10:51:32.815Z,47.30
2022-12-15T10:54:16.676Z,45.40
2022-12-15T10:56:53.204Z,46.90
2022-12-15T10:59:33.657Z,45.70
2022-12-15T11:02:36.924Z,46.80
2022-12-15T11:05:17.509Z,47.00
2022-12-15T11:07:51.775Z,45.30
2022-12-15T11:11:11.088Z,45.00
2022-12-15T11:13:43.859Z,45.00
2022-12-15T11:16:18.582Z,44.60
2022-12-15T11:18:53.199Z,45.20
2022-12-15T11:21:29.227Z,44.80
2022-12-15T11:24:07.435Z,42.90
2022-12-15T11:26:55.495Z,45.30
2022-12-15T11:29:37.455Z,44.60
2022-12-15T11:32:12.465Z,48.50
2022-12-15T11:34:47.247Z,48.90
2022-12-15T11:40:25.514Z,45.00
2022-12-15T11:43:18.714Z,43.20
2022-12-15T11:46:03.315Z,43.80
2022-12-15T11:48:43.467Z,46.70
2022-12-15T11:51:26.346Z,45.00
2022-12-15T11:54:11.545Z,46.80
2022-12-15T11:59:59.943Z,42.40
2022-12-15T12:02:58.361Z,43.40
2022-12-15T12:05:53.465Z,43.30
2022-12-15T12:08:42.710Z,38.90
2022-12-15T12:11:17.101Z,40.00
2022-12-15T12:14:01.403Z,34.70
2022-12-15T12:16:41.918Z,35.70
2022-12-15T12:19:20.093Z,35.20
2022-12-15T12:21:57.381Z,36.40
2022-12-15T12:24:34.981Z,35.30
2022-12-15T12:27:14.597Z,31.20
2022-12-15T12:29:49.056Z,31.60
2022-12-15T12:32:30.763Z,35.70
2022-12-15T12:35:30.981Z,36.60
2022-12-15T12:38:04.698Z,36.60
2022-12-15T12:40:53.752Z,38.30
2022-12-15T12:43:35.145Z,37.30
2022-12-15T12:46:16.050Z,41.20
2022-12-15T12:48:53.000Z,37.90
2022-12-15T12:51:29.501Z,36.30
2022-12-15T12:54:02.620Z,40.90
2022-12-15T12:56:41.073Z,43.40
2022-12-15T12:59:42.977Z,42.10
2022-12-15T13:02:55.466Z,48.60
2022-12-15T13:05:33.397Z,60.40
2022-12-15T13:08:35.148Z,47.50
2022-12-15T13:14:56.196Z,37.90
2022-12-15T13:17:32.907Z,40.20
2022-12-15T13:20:34.381Z,41.10
2022-12-15T13:23:42.377Z,39.20
2022-12-15T13:26:20.811Z,40.20
2022-12-15T13:28:58.474Z,44.70
2022-12-15T13:31:34.043Z,38.60
2022-12-15T13:34:19.601Z,37.70
2022-12-15T13:37:01.817Z,38.20
2022-12-15T13:39:58.139Z,36.80
2022-12-15T13:42:53.166Z,37.30
2022-12-15T13:45:44.584Z,36.90
2022-12-15T13:48:30.856Z,39.40
2022-12-15T13:51:09.749Z,39.40
2022-12-15T13:53:51.685Z,42.00
2022-12-15T13:56:41.439Z,37.60
2022-12-15T13:59:21.993Z,39.00
2022-12-15T14:01:55.938Z,36.70
2022-12-15T14:04:28.034Z,36.50
2022-12-15T14:07:02.752Z,37.40
2022-12-15T14:12:10.040Z,34.90
2022-12-15T14:14:49.287Z,36.30
2022-12-15T14:17:22.151Z,35.10
2022-12-15T14:19:55.068Z,38.00
2022-12-15T14:22:29.995Z,39.50
2022-12-15T14:25:14.674Z,39.50
2022-12-15T14:27:50.549Z,41.30
2022-12-15T14:30:29.677Z,42.00
2022-12-15T14:33:07.678Z,40.20
2022-12-15T14:35:42.629Z,40.90
2022-12-15T14:38:19.426Z,39.70
2022-12-15T14:40:53.790Z,39.30
2022-12-15T14:43:29.163Z,39.60
2022-12-15T14:46:11.371Z,36.30
2022-12-15T14:48:51.688Z,39.70
2022-12-15T14:51:27.989Z,36.80
2022-12-15T14:53:59.788Z,40.60
2022-12-15T14:56:32.466Z,40.60
2022-12-15T14:59:07.533Z,42.10
2022-12-15T15:01:58.189Z,41.90
2022-12-15T15:03:05.152Z,43.20
2022-12-15T15:04:34.582Z,43.20
2022-12-15T15:07:09.272Z,44.20
2022-12-15T15:12:18.943Z,50.10
2022-12-15T15:14:54.129Z,51.70
2022-12-15T15:17:35.456Z,52.20
2022-12-15T15:20:16.847Z,51.40
2022-12-15T15:23:04.587Z,52.70
2022-12-15T15:25:43.042Z,50.10
2022-12-15T15:28:23.403Z,52.90
2022-12-15T15:30:57.772Z,52.50
2022-12-15T15:33:30.077Z,55.30
2022-12-15T15:36:04.698Z,53.70
2022-12-15T15:38:40.148Z,56.30
2022-12-15T15:41:20.310Z,54.70
2022-12-15T15:43:52.316Z,56.80
2022-12-15T15:46:27.257Z,60.60
2022-12-15T15:49:03.812Z,61.90
2022-12-15T15:51:38.106Z,72.20
2022-12-15T15:54:13.957Z,66.20
2022-12-15T15:56:45.732Z,66.20
2022-12-15T15:59:21.292Z,65.10
2022-12-15T16:01:56.744Z,66.20
2022-12-15T16:04:29.005Z,67.60
2022-12-15T16:07:01.117Z,65.40
2022-12-15T16:09:33.212Z,68.80
2022-12-15T16:12:05.008Z,79.10
2022-12-15T16:14:36.768Z,79.20
2022-12-15T16:17:12.359Z,83.80
2022-12-15T16:19:44.645Z,91.60
2022-12-15T16:22:21.122Z,84.50
2022-12-15T16:24:52.785Z,81.80
2022-12-15T16:27:24.812Z,77.90
2022-12-15T16:29:56.576Z,78.90
2022-12-15T16:32:28.356Z,82.90
2022-12-15T16:35:00.460Z,95.30
2022-12-15T16:37:39.248Z,97.70
2022-12-15T16:40:21.452Z,90.80
2022-12-15T16:43:01.845Z,89.70
2022-12-15T16:45:35.181Z,88.40
2022-12-15T16:48:07.844Z,93.50
2022-12-15T16:50:42.438Z,86.70
2022-12-15T16:53:21.175Z,82.60
2022-12-15T16:55:56.019Z,72.00
2022-12-15T17:01:01.090Z,56.20
2022-12-15T17:03:33.510Z,71.80
2022-12-15T17:06:10.080Z,74.70
2022-12-15T17:08:45.115Z,57.50
2022-12-15T17:11:20.158Z,51.00
2022-12-15T17:13:54.307Z,52.60
2022-12-15T17:16:28.727Z,60.80
2022-12-15T17:19:00.685Z,50.40
2022-12-15T17:21:34.748Z,47.40
2022-12-15T17:24:12.633Z,48.10
2022-12-15T17:26:45.973Z,51.50
2022-12-15T17:29:20.994Z,48.30
2022-12-15T17:31:53.152Z,49.70
2022-12-15T17:34:30.654Z,48.30
2022-12-15T17:37:05.253Z,47.80
2022-12-15T17:39:39.114Z,49.70
2022-12-15T17:42:19.950Z,55.10
2022-12-15T17:44:52.728Z,43.70
2022-12-15T17:47:25.801Z,52.40
2022-12-15T17:49:58.391Z,54.10
2022-12-15T17:52:34.788Z,53.90
2022-12-15T17:55:17.932Z,55.10
2022-12-15T17:57:50.373Z,55.20
2022-12-15T18:00:30.539Z,52.20
2022-12-15T18:03:03.442Z,54.40
2022-12-15T18:05:36.437Z,53.30
2022-12-15T18:08:16.235Z,53.40
2022-12-15T18:10:49.283Z,56.30
2022-12-15T18:13:30.330Z,54.80
2022-12-15T18:16:07.957Z,55.50
2022-12-15T18:18:39.944Z,48.60
2022-12-15T18:21:18.577Z,53.00
2022-12-15T18:23:52.556Z,49.70
2022-12-15T18:26:24.999Z,60.10
2022-12-15T18:28:57.989Z,59.30
2022-12-15T18:31:32.056Z,72.90
2022-12-15T18:34:05.050Z,70.70
2022-12-15T18:36:37.105Z,79.10
2022-12-15T18:39:21.453Z,74.90
2022-12-15T18:41:56.880Z,67.20
2022-12-15T18:44:32.709Z,64.00
2022-12-15T18:47:15.090Z,57.40
2022-12-15T18:49:49.129Z,63.80
2022-12-15T18:52:31.508Z,67.80
2022-12-15T18:55:15.484Z,67.80
2022-12-15T18:57:48.824Z,71.90
2022-12-15T19:00:40.687Z,67.10
2022-12-15T19:03:14.763Z,67.10
2022-12-15T19:05:49.275Z,62.50
2022-12-15T19:08:26.264Z,59.70
2022-12-15T19:11:02.353Z,69.90
2022-12-15T19:13:36.419Z,98.00
2022-12-15T19:16:16.186Z,89.20
2022-12-15T19:19:05.920Z,83.70
2022-12-15T19:21:56.929Z,103.00
2022-12-15T19:25:02.510Z,101.10
2022-12-15T19:27:39.158Z,98.80
2022-12-15T19:30:20.272Z,92.50
2022-12-15T19:32:54.177Z,83.60
2022-12-15T19:35:29.687Z,83.50
2022-12-15T19:38:05.773Z,84.70
2022-12-15T19:40:39.991Z,81.10
2022-12-15T19:43:18.954Z,87.40
2022-12-15T19:46:18.990Z,75.20
2022-12-15T19:48:53.744Z,69.20
2022-12-15T19:51:28.118Z,68.40
2022-12-15T19:54:01.996Z,63.40
2022-12-15T19:56:42.745Z,64.40
2022-12-15T19:59:25.013Z,64.40
2022-12-15T20:01:58.953Z,67.80
2022-12-15T20:04:34.963Z,63.40
2022-12-15T20:07:18.130Z,62.70
2022-12-15T20:09:50.489Z,72.30
2022-12-15T20:12:24.182Z,79.60
2022-12-15T20:14:56.695Z,80.90
2022-12-15T20:17:29.504Z,78.10
2022-12-15T20:20:02.738Z,73.60
2022-12-15T20:22:36.153Z,67.40
2022-12-15T20:25:14.959Z,73.00
2022-12-15T20:27:50.521Z,72.90
2022-12-15T20:30:26.421Z,69.80
2022-12-15T20:32:59.050Z,57.40
2022-12-15T20:35:33.462Z,58.30
2022-12-15T20:38:19.731Z,55.40
2022-12-15T20:40:57.634Z,55.70
2022-12-15T20:43:35.961Z,52.90
2022-12-15T20:46:14.073Z,51.70
2022-12-15T20:48:46.700Z,53.80
2022-12-15T20:51:28.506Z,55.80
2022-12-15T20:54:02.111Z,52.70
2022-12-15T20:56:34.199Z,55.50
2022-12-15T20:59:09.801Z,50.40
2022-12-15T21:01:43.465Z,52.90
2022-12-15T21:04:26.342Z,53.90
2022-12-15T21:06:59.247Z,45.00
2022-12-15T21:09:31.669Z,54.70
2022-12-15T21:12:08.987Z,57.90
2022-12-15T21:14:42.172Z,57.00
2022-12-15T21:17:18.364Z,51.50
2022-12-15T21:19:50.665Z,50.60
2022-12-15T21:22:26.808Z,52.60
2022-12-15T21:25:00.894Z,56.80
2022-12-15T21:27:32.736Z,54.90
2022-12-15T21:30:04.569Z,55.00
2022-12-15T21:32:36.193Z,56.10
2022-12-15T21:35:08.807Z,71.90
2022-12-15T21:37:42.229Z,74.00
2022-12-15T21:40:21.458Z,63.90
2022-12-15T21:42:54.784Z,62.80
2022-12-15T21:45:28.263Z,65.10
2022-12-15T21:48:17.291Z,60.30
2022-12-15T21:50:50.269Z,56.30
2022-12-15T21:53:23.324Z,52.00
2022-12-15T21:55:57.655Z,53.30
2022-12-15T21:58:29.430Z,53.20
2022-12-15T22:01:03.244Z,49.80
2022-12-15T22:03:37.427Z,50.70
2022-12-15T22:06:16.007Z,49.60
2022-12-15T22:08:47.705Z,46.90
2022-12-15T22:11:27.220Z,49.70
2022-12-15T22:14:00.903Z,48.80
2022-12-15T22:16:32.621Z,45.50
2022-12-15T22:19:05.334Z,47.00
2022-12-15T22:21:36.856Z,50.90
2022-12-15T22:24:09.102Z,51.80
2022-12-15T22:26:41.947Z,50.00
2022-12-15T22:29:18.681Z,52.20
2022-12-15T22:31:52.052Z,52.00
2022-12-15T22:34:25.834Z,55.90
2022-12-15T22:36:57.572Z,109.60
2022-12-15T22:39:29.174Z,66.50
2022-12-15T22:42:01.714Z,54.90
2022-12-15T22:44:37.572Z,53.70
2022-12-15T22:47:12.283Z,52.30
2022-12-15T22:52:20.413Z,47.40
2022-12-15T22:54:54.896Z,47.40
2022-12-15T22:57:28.202Z,47.90
2022-12-15T23:00:04.482Z,50.10
2022-12-15T23:02:40.107Z,49.20
2022-12-15T23:05:14.547Z,48.60
2022-12-15T23:07:46.594Z,51.60
2022-12-15T23:10:37.476Z,50.60
2022-12-15T23:13:09.412Z,52.20
2022-12-15T23:16:00.185Z,49.80
2022-12-15T23:18:32.269Z,51.20
2022-12-15T23:21:04.127Z,51.00
2022-12-15T23:23:36.116Z,51.30
2022-12-15T23:26:08.438Z,47.50
2022-12-15T23:28:40.274Z,45.20
2022-12-15T23:31:12.422Z,52.40
2022-12-15T23:33:44.329Z,49.70
2022-12-15T23:36:16.457Z,45.60
2022-12-15T23:38:48.265Z,45.50
2022-12-15T23:41:21.192Z,45.90
2022-12-15T23:43:52.944Z,51.50
2022-12-15T23:46:24.851Z,40.60
2022-12-15T23:48:56.860Z,39.70
2022-12-15T23:51:28.576Z,36.40
2022-12-15T23:54:00.415Z,36.20
2022-12-15T23:56:31.949Z,31.80
2022-12-15T23:59:03.954Z,35.60
